sensor_id;sensor_type;location;lat;lon;timestamp;P1;durP1;ratioP1;P2;durP2;ratioP2
20456;SDS011;10387;51.102;6.848;2022-09-23T00:01:32;5.40;;;4.30;;
20456;SDS011;10387;51.102;6.848;2022-09-23T00:03:58;5.33;;;4.57;;
20456;SDS011;10387;51.102;6.848;2022-09-23T00:06:25;5.43;;;4.17;;
20456;SDS011;10387;51.102;6.848;2022-09-23T00:08:54;5.83;;;4.47;;
20456;SDS011;10387;51.102;6.848;2022-09-23T00:11:21;5.20;;;4.53;;
20456;SDS011;10387;51.102;6.848;2022-09-23T00:13:48;5.47;;;4.10;;
20456;SDS011;10387;51.102;6.848;2022-09-23T00:16:20;4.77;;;4.30;;
20456;SDS011;10387;51.102;6.848;2022-09-23T00:18:46;4.67;;;4.23;;
20456;SDS011;10387;51.102;6.848;2022-09-23T00:21:14;5.23;;;4.23;;
20456;SDS011;10387;51.102;6.848;2022-09-23T00:23:40;5.27;;;4.17;;
20456;SDS011;10387;51.102;6.848;2022-09-23T00:26:08;5.53;;;4.00;;
20456;SDS011;10387;51.102;6.848;2022-09-23T00:28:34;5.20;;;4.20;;
20456;SDS011;10387;51.102;6.848;2022-09-23T00:31:08;4.93;;;4.23;;
20456;SDS011;10387;51.102;6.848;2022-09-23T00:33:34;4.67;;;3.83;;
20456;SDS011;10387;51.102;6.848;2022-09-23T00:36:01;5.63;;;4.23;;
20456;SDS011;10387;51.102;6.848;2022-09-23T00:38:28;5.60;;;4.23;;
20456;SDS011;10387;51.102;6.848;2022-09-23T00:40:54;4.30;;;4.00;;
20456;SDS011;10387;51.102;6.848;2022-09-23T00:43:37;5.13;;;3.77;;
20456;SDS011;10387;51.102;6.848;2022-09-23T00:46:03;5.33;;;3.93;;
20456;SDS011;10387;51.102;6.848;2022-09-23T00:48:31;4.37;;;3.97;;
20456;SDS011;10387;51.102;6.848;2022-09-23T00:50:57;6.20;;;4.57;;
20456;SDS011;10387;51.102;6.848;2022-09-23T00:53:23;5.63;;;4.17;;
20456;SDS011;10387;51.102;6.848;2022-09-23T00:55:55;5.23;;;4.73;;
20456;SDS011;10387;51.102;6.848;2022-09-23T00:58:25;4.90;;;3.83;;
20456;SDS011;10387;51.102;6.848;2022-09-23T01:00:53;5.00;;;4.50;;
20456;SDS011;10387;51.102;6.848;2022-09-23T01:03:19;6.03;;;4.57;;
20456;SDS011;10387;51.102;6.848;2022-09-23T01:05:48;4.93;;;4.43;;
20456;SDS011;10387;51.102;6.848;2022-09-23T01:08:15;4.77;;;4.37;;
20456;SDS011;10387;51.102;6.848;2022-09-23T01:15:52;6.07;;;5.13;;
20456;SDS011;10387;51.102;6.848;2022-09-23T01:20:57;5.50;;;5.00;;
20456;SDS011;10387;51.102;6.848;2022-09-23T01:31:13;5.40;;;4.90;;
20456;SDS011;10387;51.102;6.848;2022-09-23T01:33:46;5.97;;;5.37;;
20456;SDS011;10387;51.102;6.848;2022-09-23T01:41:38;7.57;;;5.60;;
20456;SDS011;10387;51.102;6.848;2022-09-23T01:44:20;5.73;;;5.10;;
20456;SDS011;10387;51.102;6.848;2022-09-23T01:46:48;5.87;;;4.60;;
20456;SDS011;10387;51.102;6.848;2022-09-23T01:49:31;5.93;;;5.23;;
20456;SDS011;10387;51.102;6.848;2022-09-23T01:53:01;5.70;;;5.10;;
20456;SDS011;10387;51.102;6.848;2022-09-23T01:55:02;8.57;;;5.07;;
20456;SDS011;10387;51.102;6.848;2022-09-23T01:58:17;5.47;;;4.97;;
20456;SDS011;10387;51.102;6.848;2022-09-23T02:00:22;5.37;;;4.87;;
20456;SDS011;10387;51.102;6.848;2022-09-23T02:02:54;5.63;;;4.47;;
20456;SDS011;10387;51.102;6.848;2022-09-23T02:05:27;5.97;;;4.53;;
20456;SDS011;10387;51.102;6.848;2022-09-23T02:07:56;6.33;;;4.93;;
20456;SDS011;10387;51.102;6.848;2022-09-23T02:13:06;5.13;;;4.67;;
20456;SDS011;10387;51.102;6.848;2022-09-23T02:15:35;6.00;;;5.17;;
20456;SDS011;10387;51.102;6.848;2022-09-23T02:18:06;5.13;;;4.63;;
20456;SDS011;10387;51.102;6.848;2022-09-23T02:20:35;6.13;;;4.93;;
20456;SDS011;10387;51.102;6.848;2022-09-23T02:25:46;6.57;;;5.00;;
20456;SDS011;10387;51.102;6.848;2022-09-23T02:28:17;5.50;;;4.63;;
20456;SDS011;10387;51.102;6.848;2022-09-23T02:30:46;5.57;;;4.77;;
20456;SDS011;10387;51.102;6.848;2022-09-23T02:33:31;5.47;;;4.60;;
20456;SDS011;10387;51.102;6.848;2022-09-23T02:36:03;6.27;;;5.00;;
20456;SDS011;10387;51.102;6.848;2022-09-23T02:38:33;5.50;;;5.07;;
20456;SDS011;10387;51.102;6.848;2022-09-23T02:41:08;6.07;;;4.80;;
20456;SDS011;10387;51.102;6.848;2022-09-23T02:46:20;8.10;;;5.33;;
20456;SDS011;10387;51.102;6.848;2022-09-23T02:48:54;5.40;;;4.90;;
20456;SDS011;10387;51.102;6.848;2022-09-23T02:51:21;5.70;;;4.83;;
20456;SDS011;10387;51.102;6.848;2022-09-23T02:53:56;5.30;;;4.80;;
20456;SDS011;10387;51.102;6.848;2022-09-23T02:56:22;5.87;;;5.10;;
20456;SDS011;10387;51.102;6.848;2022-09-23T02:58:50;5.77;;;5.17;;
20456;SDS011;10387;51.102;6.848;2022-09-23T03:03:57;6.20;;;5.00;;
20456;SDS011;10387;51.102;6.848;2022-09-23T03:06:37;6.33;;;4.90;;
20456;SDS011;10387;51.102;6.848;2022-09-23T03:09:05;7.57;;;4.83;;
20456;SDS011;10387;51.102;6.848;2022-09-23T03:11:34;6.30;;;5.30;;
20456;SDS011;10387;51.102;6.848;2022-09-23T03:19:06;8.10;;;5.20;;
20456;SDS011;10387;51.102;6.848;2022-09-23T03:24:25;5.77;;;5.17;;
20456;SDS011;10387;51.102;6.848;2022-09-23T03:26:52;8.57;;;5.93;;
20456;SDS011;10387;51.102;6.848;2022-09-23T03:29:19;6.17;;;5.63;;
20456;SDS011;10387;51.102;6.848;2022-09-23T03:31:46;5.50;;;4.83;;
20456;SDS011;10387;51.102;6.848;2022-09-23T03:34:20;5.50;;;4.80;;
20456;SDS011;10387;51.102;6.848;2022-09-23T03:36:54;5.33;;;4.83;;
20456;SDS011;10387;51.102;6.848;2022-09-23T03:39:45;5.43;;;4.93;;
20456;SDS011;10387;51.102;6.848;2022-09-23T03:42:17;5.47;;;4.97;;
20456;SDS011;10387;51.102;6.848;2022-09-23T03:44:45;5.53;;;5.03;;
20456;SDS011;10387;51.102;6.848;2022-09-23T03:47:11;5.40;;;4.53;;
20456;SDS011;10387;51.102;6.848;2022-09-23T03:49:39;6.27;;;5.07;;
20456;SDS011;10387;51.102;6.848;2022-09-23T03:52:05;7.40;;;5.30;;
20456;SDS011;10387;51.102;6.848;2022-09-23T03:54:32;6.27;;;4.80;;
20456;SDS011;10387;51.102;6.848;2022-09-23T03:56:59;5.43;;;4.50;;
20456;SDS011;10387;51.102;6.848;2022-09-23T03:59:27;6.77;;;5.00;;
20456;SDS011;10387;51.102;6.848;2022-09-23T04:01:55;4.80;;;4.30;;
20456;SDS011;10387;51.102;6.848;2022-09-23T04:04:23;5.33;;;4.83;;
20456;SDS011;10387;51.102;6.848;2022-09-23T04:06:50;8.03;;;5.10;;
20456;SDS011;10387;51.102;6.848;2022-09-23T04:09:16;5.93;;;4.57;;
20456;SDS011;10387;51.102;6.848;2022-09-23T04:11:42;5.33;;;4.83;;
20456;SDS011;10387;51.102;6.848;2022-09-23T04:14:08;4.97;;;4.47;;
20456;SDS011;10387;51.102;6.848;2022-09-23T04:16:36;5.10;;;4.60;;
20456;SDS011;10387;51.102;6.848;2022-09-23T04:19:02;5.57;;;4.77;;
20456;SDS011;10387;51.102;6.848;2022-09-23T04:21:28;5.40;;;4.77;;
20456;SDS011;10387;51.102;6.848;2022-09-23T04:23:55;7.07;;;5.40;;
20456;SDS011;10387;51.102;6.848;2022-09-23T04:26:21;5.80;;;5.20;;
20456;SDS011;10387;51.102;6.848;2022-09-23T04:28:47;6.03;;;5.03;;
20456;SDS011;10387;51.102;6.848;2022-09-23T04:31:13;5.87;;;4.83;;
20456;SDS011;10387;51.102;6.848;2022-09-23T04:33:39;5.57;;;4.97;;
20456;SDS011;10387;51.102;6.848;2022-09-23T04:36:06;6.03;;;5.50;;
20456;SDS011;10387;51.102;6.848;2022-09-23T04:38:32;5.87;;;5.37;;
20456;SDS011;10387;51.102;6.848;2022-09-23T04:40:59;6.20;;;5.60;;
20456;SDS011;10387;51.102;6.848;2022-09-23T04:43:25;7.47;;;5.43;;
20456;SDS011;10387;51.102;6.848;2022-09-23T04:46:02;9.53;;;6.13;;
20456;SDS011;10387;51.102;6.848;2022-09-23T04:48:28;7.50;;;5.63;;
20456;SDS011;10387;51.102;6.848;2022-09-23T04:51:05;6.67;;;5.97;;
20456;SDS011;10387;51.102;6.848;2022-09-23T04:53:32;6.63;;;5.60;;
20456;SDS011;10387;51.102;6.848;2022-09-23T04:56:03;7.17;;;5.50;;
20456;SDS011;10387;51.102;6.848;2022-09-23T04:58:29;5.63;;;5.17;;
20456;SDS011;10387;51.102;6.848;2022-09-23T05:00:55;8.13;;;5.80;;
20456;SDS011;10387;51.102;6.848;2022-09-23T05:03:22;6.37;;;5.70;;
20456;SDS011;10387;51.102;6.848;2022-09-23T05:05:48;8.80;;;6.03;;
20456;SDS011;10387;51.102;6.848;2022-09-23T05:08:14;7.37;;;5.60;;
20456;SDS011;10387;51.102;6.848;2022-09-23T05:10:41;7.47;;;6.03;;
20456;SDS011;10387;51.102;6.848;2022-09-23T05:13:07;7.40;;;5.93;;
20456;SDS011;10387;51.102;6.848;2022-09-23T05:15:33;7.43;;;6.10;;
20456;SDS011;10387;51.102;6.848;2022-09-23T05:18:00;6.33;;;5.43;;
20456;SDS011;10387;51.102;6.848;2022-09-23T05:20:26;7.07;;;5.93;;
20456;SDS011;10387;51.102;6.848;2022-09-23T05:22:52;6.17;;;5.57;;
20456;SDS011;10387;51.102;6.848;2022-09-23T05:25:20;7.67;;;6.13;;
20456;SDS011;10387;51.102;6.848;2022-09-23T05:27:48;6.60;;;5.90;;
20456;SDS011;10387;51.102;6.848;2022-09-23T05:30:14;7.30;;;6.07;;
20456;SDS011;10387;51.102;6.848;2022-09-23T05:32:40;6.80;;;6.10;;
20456;SDS011;10387;51.102;6.848;2022-09-23T05:35:07;6.63;;;6.00;;
20456;SDS011;10387;51.102;6.848;2022-09-23T05:37:33;7.00;;;6.30;;
20456;SDS011;10387;51.102;6.848;2022-09-23T05:39:59;8.10;;;6.20;;
20456;SDS011;10387;51.102;6.848;2022-09-23T05:42:25;8.30;;;6.30;;
20456;SDS011;10387;51.102;6.848;2022-09-23T05:44:52;7.00;;;6.40;;
20456;SDS011;10387;51.102;6.848;2022-09-23T05:47:19;7.77;;;6.30;;
20456;SDS011;10387;51.102;6.848;2022-09-23T05:49:46;8.23;;;7.33;;
20456;SDS011;10387;51.102;6.848;2022-09-23T05:52:12;7.90;;;6.97;;
20456;SDS011;10387;51.102;6.848;2022-09-23T05:54:38;8.47;;;6.60;;
20456;SDS011;10387;51.102;6.848;2022-09-23T05:57:05;8.57;;;7.33;;
20456;SDS011;10387;51.102;6.848;2022-09-23T05:59:31;7.70;;;6.60;;
20456;SDS011;10387;51.102;6.848;2022-09-23T06:01:57;9.57;;;6.73;;
20456;SDS011;10387;51.102;6.848;2022-09-23T06:04:25;6.97;;;6.23;;
20456;SDS011;10387;51.102;6.848;2022-09-23T06:06:51;7.90;;;7.20;;
20456;SDS011;10387;51.102;6.848;2022-09-23T06:09:17;8.73;;;7.13;;
20456;SDS011;10387;51.102;6.848;2022-09-23T06:11:43;8.60;;;6.83;;
20456;SDS011;10387;51.102;6.848;2022-09-23T06:14:11;11.00;;;7.03;;
20456;SDS011;10387;51.102;6.848;2022-09-23T06:16:38;7.87;;;6.77;;
20456;SDS011;10387;51.102;6.848;2022-09-23T06:19:04;7.80;;;6.23;;
20456;SDS011;10387;51.102;6.848;2022-09-23T06:21:32;7.07;;;6.20;;
20456;SDS011;10387;51.102;6.848;2022-09-23T06:23:58;6.90;;;6.20;;
20456;SDS011;10387;51.102;6.848;2022-09-23T06:26:24;5.93;;;5.40;;
20456;SDS011;10387;51.102;6.848;2022-09-23T06:28:50;7.10;;;5.80;;
20456;SDS011;10387;51.102;6.848;2022-09-23T06:31:17;6.43;;;5.83;;
20456;SDS011;10387;51.102;6.848;2022-09-23T06:33:43;8.97;;;5.20;;
20456;SDS011;10387;51.102;6.848;2022-09-23T06:36:10;5.73;;;5.20;;
20456;SDS011;10387;51.102;6.848;2022-09-23T06:38:38;6.43;;;5.33;;
20456;SDS011;10387;51.102;6.848;2022-09-23T06:41:04;6.60;;;5.00;;
20456;SDS011;10387;51.102;6.848;2022-09-23T06:43:31;5.90;;;4.70;;
20456;SDS011;10387;51.102;6.848;2022-09-23T06:45:58;5.70;;;5.13;;
20456;SDS011;10387;51.102;6.848;2022-09-23T06:48:25;6.37;;;5.03;;
20456;SDS011;10387;51.102;6.848;2022-09-23T06:50:51;6.10;;;5.50;;
20456;SDS011;10387;51.102;6.848;2022-09-23T06:53:18;6.43;;;5.20;;
20456;SDS011;10387;51.102;6.848;2022-09-23T06:55:46;5.30;;;4.90;;
20456;SDS011;10387;51.102;6.848;2022-09-23T06:58:13;5.90;;;5.30;;
20456;SDS011;10387;51.102;6.848;2022-09-23T07:00:39;6.73;;;4.73;;
20456;SDS011;10387;51.102;6.848;2022-09-23T07:03:06;7.17;;;5.37;;
20456;SDS011;10387;51.102;6.848;2022-09-23T07:05:33;5.50;;;5.00;;
20456;SDS011;10387;51.102;6.848;2022-09-23T07:07:59;6.17;;;5.27;;
20456;SDS011;10387;51.102;6.848;2022-09-23T07:10:25;6.43;;;4.90;;
20456;SDS011;10387;51.102;6.848;2022-09-23T07:12:53;5.97;;;5.07;;
20456;SDS011;10387;51.102;6.848;2022-09-23T07:15:19;5.77;;;5.17;;
20456;SDS011;10387;51.102;6.848;2022-09-23T07:17:46;5.57;;;5.03;;
20456;SDS011;10387;51.102;6.848;2022-09-23T07:20:12;5.60;;;5.00;;
20456;SDS011;10387;51.102;6.848;2022-09-23T07:22:38;7.73;;;5.17;;
20456;SDS011;10387;51.102;6.848;2022-09-23T07:25:04;5.67;;;5.07;;
20456;SDS011;10387;51.102;6.848;2022-09-23T07:27:30;5.67;;;5.00;;
20456;SDS011;10387;51.102;6.848;2022-09-23T07:29:57;5.20;;;4.70;;
20456;SDS011;10387;51.102;6.848;2022-09-23T07:32:23;6.03;;;5.00;;
20456;SDS011;10387;51.102;6.848;2022-09-23T07:34:50;5.20;;;4.70;;
20456;SDS011;10387;51.102;6.848;2022-09-23T07:37:17;7.50;;;5.17;;
20456;SDS011;10387;51.102;6.848;2022-09-23T07:39:44;6.30;;;4.70;;
20456;SDS011;10387;51.102;6.848;2022-09-23T07:42:10;5.30;;;4.80;;
20456;SDS011;10387;51.102;6.848;2022-09-23T07:44:37;5.10;;;4.70;;
20456;SDS011;10387;51.102;6.848;2022-09-23T07:47:03;5.60;;;5.10;;
20456;SDS011;10387;51.102;6.848;2022-09-23T07:49:30;7.67;;;5.10;;
20456;SDS011;10387;51.102;6.848;2022-09-23T07:51:56;5.47;;;4.97;;
20456;SDS011;10387;51.102;6.848;2022-09-23T07:54:22;6.73;;;5.23;;
20456;SDS011;10387;51.102;6.848;2022-09-23T07:56:49;5.60;;;4.60;;
20456;SDS011;10387;51.102;6.848;2022-09-23T07:59:16;6.33;;;5.57;;
20456;SDS011;10387;51.102;6.848;2022-09-23T08:01:44;5.73;;;5.20;;
20456;SDS011;10387;51.102;6.848;2022-09-23T08:04:12;5.33;;;4.83;;
20456;SDS011;10387;51.102;6.848;2022-09-23T08:06:44;6.23;;;5.17;;
20456;SDS011;10387;51.102;6.848;2022-09-23T08:09:10;8.03;;;5.60;;
20456;SDS011;10387;51.102;6.848;2022-09-23T08:11:37;5.60;;;4.87;;
20456;SDS011;10387;51.102;6.848;2022-09-23T08:14:06;5.30;;;4.80;;
20456;SDS011;10387;51.102;6.848;2022-09-23T08:16:33;7.33;;;5.03;;
20456;SDS011;10387;51.102;6.848;2022-09-23T08:18:59;7.03;;;5.30;;
20456;SDS011;10387;51.102;6.848;2022-09-23T08:21:26;4.80;;;4.40;;
20456;SDS011;10387;51.102;6.848;2022-09-23T08:23:52;4.90;;;4.40;;
20456;SDS011;10387;51.102;6.848;2022-09-23T08:26:18;8.20;;;4.80;;
20456;SDS011;10387;51.102;6.848;2022-09-23T08:28:44;7.87;;;5.00;;
20456;SDS011;10387;51.102;6.848;2022-09-23T08:31:12;5.17;;;4.67;;
20456;SDS011;10387;51.102;6.848;2022-09-23T08:33:39;6.93;;;4.93;;
20456;SDS011;10387;51.102;6.848;2022-09-23T08:36:05;7.73;;;5.13;;
20456;SDS011;10387;51.102;6.848;2022-09-23T08:38:32;7.23;;;4.20;;
20456;SDS011;10387;51.102;6.848;2022-09-23T08:41:06;6.07;;;4.57;;
20456;SDS011;10387;51.102;6.848;2022-09-23T08:43:33;5.90;;;4.87;;
20456;SDS011;10387;51.102;6.848;2022-09-23T08:46:05;6.93;;;5.20;;
20456;SDS011;10387;51.102;6.848;2022-09-23T08:48:41;8.43;;;5.30;;
20456;SDS011;10387;51.102;6.848;2022-09-23T08:51:50;5.07;;;4.63;;
20456;SDS011;10387;51.102;6.848;2022-09-23T08:53:57;7.77;;;5.10;;
20456;SDS011;10387;51.102;6.848;2022-09-23T08:56:24;6.07;;;5.03;;
20456;SDS011;10387;51.102;6.848;2022-09-23T09:04:17;5.57;;;5.00;;
20456;SDS011;10387;51.102;6.848;2022-09-23T09:06:46;5.57;;;5.00;;
20456;SDS011;10387;51.102;6.848;2022-09-23T09:09:27;6.37;;;5.20;;
20456;SDS011;10387;51.102;6.848;2022-09-23T09:14:35;6.70;;;5.43;;
20456;SDS011;10387;51.102;6.848;2022-09-23T09:17:05;5.10;;;4.60;;
20456;SDS011;10387;51.102;6.848;2022-09-23T09:22:03;6.10;;;5.50;;
20456;SDS011;10387;51.102;6.848;2022-09-23T09:24:33;6.37;;;4.87;;
20456;SDS011;10387;51.102;6.848;2022-09-23T09:26:59;5.67;;;5.10;;
20456;SDS011;10387;51.102;6.848;2022-09-23T09:29:27;7.67;;;5.00;;
20456;SDS011;10387;51.102;6.848;2022-09-23T09:31:56;6.17;;;5.13;;
20456;SDS011;10387;51.102;6.848;2022-09-23T09:39:22;6.33;;;5.40;;
20456;SDS011;10387;51.102;6.848;2022-09-23T09:41:51;8.70;;;5.73;;
20456;SDS011;10387;51.102;6.848;2022-09-23T09:50:06;5.70;;;5.17;;
20456;SDS011;10387;51.102;6.848;2022-09-23T09:52:33;6.17;;;5.10;;
20456;SDS011;10387;51.102;6.848;2022-09-23T09:57:41;5.40;;;4.90;;
20456;SDS011;10387;51.102;6.848;2022-09-23T10:02:54;6.53;;;4.87;;
20456;SDS011;10387;51.102;6.848;2022-09-23T10:05:25;5.13;;;4.63;;
20456;SDS011;10387;51.102;6.848;2022-09-23T10:07:52;7.13;;;4.50;;
20456;SDS011;10387;51.102;6.848;2022-09-23T10:10:20;6.50;;;5.10;;
20456;SDS011;10387;51.102;6.848;2022-09-23T10:12:51;5.40;;;4.87;;
20456;SDS011;10387;51.102;6.848;2022-09-23T10:15:29;5.93;;;4.97;;
20456;SDS011;10387;51.102;6.848;2022-09-23T10:18:00;5.73;;;5.13;;
20456;SDS011;10387;51.102;6.848;2022-09-23T10:20:33;8.33;;;5.30;;
20456;SDS011;10387;51.102;6.848;2022-09-23T10:23:08;6.77;;;4.77;;
20456;SDS011;10387;51.102;6.848;2022-09-23T10:25:38;5.87;;;4.50;;
20456;SDS011;10387;51.102;6.848;2022-09-23T10:31:03;5.40;;;4.30;;
20456;SDS011;10387;51.102;6.848;2022-09-23T10:33:30;4.67;;;4.10;;
20456;SDS011;10387;51.102;6.848;2022-09-23T10:35:57;4.60;;;4.00;;
20456;SDS011;10387;51.102;6.848;2022-09-23T10:38:23;4.23;;;3.90;;
20456;SDS011;10387;51.102;6.848;2022-09-23T10:40:50;4.53;;;3.43;;
20456;SDS011;10387;51.102;6.848;2022-09-23T10:46:28;5.43;;;4.10;;
20456;SDS011;10387;51.102;6.848;2022-09-23T10:49:20;4.37;;;3.97;;
20456;SDS011;10387;51.102;6.848;2022-09-23T11:02:59;3.43;;;3.13;;
20456;SDS011;10387;51.102;6.848;2022-09-23T11:08:06;5.60;;;3.60;;
20456;SDS011;10387;51.102;6.848;2022-09-23T11:17:03;4.83;;;3.57;;
20456;SDS011;10387;51.102;6.848;2022-09-23T11:19:00;3.37;;;3.07;;
20456;SDS011;10387;51.102;6.848;2022-09-23T11:26:46;5.07;;;3.43;;
20456;SDS011;10387;51.102;6.848;2022-09-23T11:37:19;4.27;;;3.00;;
20456;SDS011;10387;51.102;6.848;2022-09-23T11:42:19;7.53;;;3.10;;
20456;SDS011;10387;51.102;6.848;2022-09-23T11:44:48;6.30;;;3.20;;
20456;SDS011;10387;51.102;6.848;2022-09-23T11:47:38;3.90;;;3.20;;
20456;SDS011;10387;51.102;6.848;2022-09-23T11:50:17;4.13;;;3.23;;
20456;SDS011;10387;51.102;6.848;2022-09-23T11:52:46;5.43;;;2.80;;
20456;SDS011;10387;51.102;6.848;2022-09-23T11:57:41;4.17;;;2.90;;
20456;SDS011;10387;51.102;6.848;2022-09-23T12:05:47;4.53;;;2.90;;
20456;SDS011;10387;51.102;6.848;2022-09-23T12:08:23;4.60;;;2.73;;
20456;SDS011;10387;51.102;6.848;2022-09-23T12:16:49;3.30;;;3.00;;
20456;SDS011;10387;51.102;6.848;2022-09-23T12:24:43;3.80;;;3.00;;
20456;SDS011;10387;51.102;6.848;2022-09-23T12:26:44;3.60;;;2.90;;
20456;SDS011;10387;51.102;6.848;2022-09-23T12:29:14;4.07;;;2.80;;
20456;SDS011;10387;51.102;6.848;2022-09-23T12:31:40;4.27;;;2.63;;
20456;SDS011;10387;51.102;6.848;2022-09-23T12:34:22;3.20;;;2.70;;
20456;SDS011;10387;51.102;6.848;2022-09-23T12:36:49;5.93;;;3.07;;
20456;SDS011;10387;51.102;6.848;2022-09-23T12:39:16;3.87;;;2.43;;
20456;SDS011;10387;51.102;6.848;2022-09-23T12:41:47;5.27;;;3.13;;
20456;SDS011;10387;51.102;6.848;2022-09-23T12:46:48;4.93;;;2.93;;
20456;SDS011;10387;51.102;6.848;2022-09-23T12:54:36;6.07;;;3.17;;
20456;SDS011;10387;51.102;6.848;2022-09-23T12:57:04;4.87;;;3.13;;
20456;SDS011;10387;51.102;6.848;2022-09-23T12:59:31;4.13;;;3.20;;
20456;SDS011;10387;51.102;6.848;2022-09-23T13:08:26;4.63;;;2.90;;
20456;SDS011;10387;51.102;6.848;2022-09-23T13:10:46;4.80;;;2.80;;
20456;SDS011;10387;51.102;6.848;2022-09-23T13:19:04;5.10;;;3.00;;
20456;SDS011;10387;51.102;6.848;2022-09-23T13:24:19;6.07;;;3.13;;
20456;SDS011;10387;51.102;6.848;2022-09-23T13:27:02;4.23;;;2.67;;
20456;SDS011;10387;51.102;6.848;2022-09-23T13:29:38;4.37;;;3.20;;
20456;SDS011;10387;51.102;6.848;2022-09-23T13:32:13;4.10;;;2.80;;
20456;SDS011;10387;51.102;6.848;2022-09-23T13:34:44;7.60;;;2.80;;
20456;SDS011;10387;51.102;6.848;2022-09-23T13:37:18;3.97;;;2.90;;
20456;SDS011;10387;51.102;6.848;2022-09-23T13:39:45;6.40;;;2.97;;
20456;SDS011;10387;51.102;6.848;2022-09-23T13:42:19;4.50;;;2.63;;
20456;SDS011;10387;51.102;6.848;2022-09-23T13:44:47;5.17;;;2.63;;
20456;SDS011;10387;51.102;6.848;2022-09-23T13:47:13;3.00;;;2.70;;
20456;SDS011;10387;51.102;6.848;2022-09-23T13:49:40;5.67;;;3.00;;
20456;SDS011;10387;51.102;6.848;2022-09-23T13:52:18;3.67;;;2.70;;
20456;SDS011;10387;51.102;6.848;2022-09-23T13:54:48;5.27;;;3.10;;
20456;SDS011;10387;51.102;6.848;2022-09-23T13:57:24;5.20;;;3.23;;
20456;SDS011;10387;51.102;6.848;2022-09-23T13:59:51;4.00;;;3.10;;
20456;SDS011;10387;51.102;6.848;2022-09-23T14:02:17;4.83;;;3.20;;
20456;SDS011;10387;51.102;6.848;2022-09-23T14:04:50;5.27;;;3.67;;
20456;SDS011;10387;51.102;6.848;2022-09-23T14:07:17;5.07;;;3.30;;
20456;SDS011;10387;51.102;6.848;2022-09-23T14:09:44;4.20;;;3.10;;
20456;SDS011;10387;51.102;6.848;2022-09-23T14:12:11;3.23;;;2.63;;
20456;SDS011;10387;51.102;6.848;2022-09-23T14:14:38;2.87;;;1.90;;
20456;SDS011;10387;51.102;6.848;2022-09-23T14:17:05;1.87;;;1.67;;
20456;SDS011;10387;51.102;6.848;2022-09-23T14:19:32;3.13;;;1.80;;
20456;SDS011;10387;51.102;6.848;2022-09-23T14:22:00;4.43;;;1.70;;
20456;SDS011;10387;51.102;6.848;2022-09-23T14:26:57;3.37;;;1.77;;
20456;SDS011;10387;51.102;6.848;2022-09-23T14:29:28;2.43;;;1.67;;
20456;SDS011;10387;51.102;6.848;2022-09-23T14:31:59;3.43;;;1.80;;
20456;SDS011;10387;51.102;6.848;2022-09-23T14:37:24;2.03;;;1.47;;
20456;SDS011;10387;51.102;6.848;2022-09-23T14:40:14;2.20;;;1.70;;
20456;SDS011;10387;51.102;6.848;2022-09-23T14:42:42;2.67;;;1.80;;
20456;SDS011;10387;51.102;6.848;2022-09-23T14:45:11;2.90;;;1.80;;
20456;SDS011;10387;51.102;6.848;2022-09-23T14:47:40;2.10;;;1.70;;
20456;SDS011;10387;51.102;6.848;2022-09-23T14:50:13;1.30;;;1.20;;
20456;SDS011;10387;51.102;6.848;2022-09-23T14:52:58;3.10;;;1.60;;
20456;SDS011;10387;51.102;6.848;2022-09-23T14:55:26;1.67;;;1.40;;
20456;SDS011;10387;51.102;6.848;2022-09-23T14:57:59;2.20;;;1.60;;
20456;SDS011;10387;51.102;6.848;2022-09-23T15:00:26;2.13;;;1.53;;
20456;SDS011;10387;51.102;6.848;2022-09-23T15:02:57;2.30;;;1.47;;
20456;SDS011;10387;51.102;6.848;2022-09-23T15:05:31;3.97;;;2.10;;
20456;SDS011;10387;51.102;6.848;2022-09-23T15:08:04;4.27;;;1.57;;
20456;SDS011;10387;51.102;6.848;2022-09-23T15:10:31;2.33;;;1.60;;
20456;SDS011;10387;51.102;6.848;2022-09-23T15:13:06;2.40;;;1.73;;
20456;SDS011;10387;51.102;6.848;2022-09-23T15:15:33;3.87;;;1.80;;
20456;SDS011;10387;51.102;6.848;2022-09-23T15:18:09;4.93;;;2.30;;
20456;SDS011;10387;51.102;6.848;2022-09-23T15:20:37;5.10;;;1.90;;
20456;SDS011;10387;51.102;6.848;2022-09-23T15:23:04;2.17;;;1.80;;
20456;SDS011;10387;51.102;6.848;2022-09-23T15:30:22;4.10;;;1.60;;
20456;SDS011;10387;51.102;6.848;2022-09-23T15:32:49;1.83;;;1.60;;
20456;SDS011;10387;51.102;6.848;2022-09-23T15:35:16;2.30;;;1.70;;
20456;SDS011;10387;51.102;6.848;2022-09-23T15:37:43;3.90;;;1.70;;
20456;SDS011;10387;51.102;6.848;2022-09-23T15:40:25;2.30;;;1.63;;
20456;SDS011;10387;51.102;6.848;2022-09-23T15:42:59;3.33;;;1.60;;
20456;SDS011;10387;51.102;6.848;2022-09-23T15:45:33;3.80;;;1.70;;
20456;SDS011;10387;51.102;6.848;2022-09-23T15:48:04;3.50;;;1.80;;
20456;SDS011;10387;51.102;6.848;2022-09-23T15:50:35;5.03;;;2.00;;
20456;SDS011;10387;51.102;6.848;2022-09-23T15:53:02;2.90;;;1.47;;
20456;SDS011;10387;51.102;6.848;2022-09-23T15:55:30;3.07;;;1.60;;
20456;SDS011;10387;51.102;6.848;2022-09-23T15:57:57;1.80;;;1.60;;
20456;SDS011;10387;51.102;6.848;2022-09-23T16:00:24;3.87;;;1.60;;
20456;SDS011;10387;51.102;6.848;2022-09-23T16:02:50;2.97;;;1.60;;
20456;SDS011;10387;51.102;6.848;2022-09-23T16:05:28;4.60;;;1.90;;
20456;SDS011;10387;51.102;6.848;2022-09-23T16:07:59;4.10;;;1.97;;
20456;SDS011;10387;51.102;6.848;2022-09-23T16:10:25;3.67;;;1.60;;
20456;SDS011;10387;51.102;6.848;2022-09-23T16:12:53;5.57;;;1.77;;
20456;SDS011;10387;51.102;6.848;2022-09-23T16:15:22;3.57;;;1.80;;
20456;SDS011;10387;51.102;6.848;2022-09-23T16:17:48;4.37;;;1.70;;
20456;SDS011;10387;51.102;6.848;2022-09-23T16:20:15;2.23;;;1.90;;
20456;SDS011;10387;51.102;6.848;2022-09-23T16:25:27;4.30;;;2.00;;
20456;SDS011;10387;51.102;6.848;2022-09-23T16:27:55;4.17;;;1.90;;
20456;SDS011;10387;51.102;6.848;2022-09-23T16:30:26;3.50;;;1.90;;
20456;SDS011;10387;51.102;6.848;2022-09-23T16:32:52;4.90;;;2.07;;
20456;SDS011;10387;51.102;6.848;2022-09-23T16:35:19;2.23;;;1.73;;
20456;SDS011;10387;51.102;6.848;2022-09-23T16:37:46;2.60;;;1.87;;
20456;SDS011;10387;51.102;6.848;2022-09-23T16:40:16;4.40;;;2.50;;
20456;SDS011;10387;51.102;6.848;2022-09-23T16:42:48;6.90;;;2.27;;
20456;SDS011;10387;51.102;6.848;2022-09-23T16:45:15;3.57;;;2.17;;
20456;SDS011;10387;51.102;6.848;2022-09-23T16:47:45;2.40;;;1.90;;
20456;SDS011;10387;51.102;6.848;2022-09-23T16:50:13;4.13;;;2.20;;
20456;SDS011;10387;51.102;6.848;2022-09-23T16:52:40;5.43;;;1.73;;
20456;SDS011;10387;51.102;6.848;2022-09-23T16:55:06;4.20;;;1.90;;
20456;SDS011;10387;51.102;6.848;2022-09-23T16:57:33;3.10;;;1.90;;
20456;SDS011;10387;51.102;6.848;2022-09-23T17:00:03;3.07;;;2.20;;
20456;SDS011;10387;51.102;6.848;2022-09-23T17:02:48;3.33;;;2.13;;
20456;SDS011;10387;51.102;6.848;2022-09-23T17:05:33;4.30;;;2.00;;
20456;SDS011;10387;51.102;6.848;2022-09-23T17:07:59;2.67;;;2.00;;
20456;SDS011;10387;51.102;6.848;2022-09-23T17:10:26;3.00;;;2.07;;
20456;SDS011;10387;51.102;6.848;2022-09-23T17:12:52;4.00;;;2.40;;
20456;SDS011;10387;51.102;6.848;2022-09-23T17:15:21;4.47;;;2.57;;
20456;SDS011;10387;51.102;6.848;2022-09-23T17:17:48;3.97;;;3.10;;
20456;SDS011;10387;51.102;6.848;2022-09-23T17:20:14;4.63;;;3.03;;
20456;SDS011;10387;51.102;6.848;2022-09-23T17:22:40;4.47;;;3.03;;
20456;SDS011;10387;51.102;6.848;2022-09-23T17:25:08;5.90;;;3.07;;
20456;SDS011;10387;51.102;6.848;2022-09-23T17:27:34;3.90;;;3.30;;
20456;SDS011;10387;51.102;6.848;2022-09-23T17:30:02;3.63;;;3.30;;
20456;SDS011;10387;51.102;6.848;2022-09-23T17:32:29;4.60;;;3.60;;
20456;SDS011;10387;51.102;6.848;2022-09-23T17:34:56;3.80;;;3.37;;
20456;SDS011;10387;51.102;6.848;2022-09-23T17:37:28;5.27;;;3.73;;
20456;SDS011;10387;51.102;6.848;2022-09-23T17:39:56;6.10;;;4.00;;
20456;SDS011;10387;51.102;6.848;2022-09-23T17:42:23;4.87;;;3.37;;